Barfleur — FNIE — position and weather

sailwx.info

Track history (hours):
 
Tides and Currents Weather Stations Pressure Air Temp Water Temp Dewpoint Dewpoint Depression Visibility Wind Speed Wind Dir Waves Ship Positions

Barfleur

Operator: Brittany Ferries

Last reported at 2016-Jul-02 04:33 UTC. Time now 2016-Jul-02 05:50 UTC.
Position N 50°42' W 001°59'.

Length 158 m; draft 5 m.

Type: Passenger vessel. MMSI: 227289000.

Date/timePositionNaut miles runAvg speedWind from/ knotsBaromVisibWave heightAir tempDewpointWater temp
2016-Jul-02 04:33N 50°42' W 001°59'0 0.0
2016-Jul-02 03:33N 50°42' W 001°59'0 0.0
2016-Jul-02 02:33N 50°42' W 001°59'0 0.0
2016-Jul-02 01:33N 50°42' W 001°59'0 0.0
2016-Jul-02 00:33N 50°42' W 001°59'0 0.0
2016-Jul-01 23:33N 50°42' W 001°59'0 0.0
2016-Jul-01 22:33N 50°42' W 001°59'0 0.0
2016-Jul-01 21:33N 50°42' W 001°59'1 0.9
2016-Jul-01 20:33N 50°42' W 001°58'13 1.1
2016-Jul-01 08:27N 50°30' W 001°52'1314.7
2016-Jul-01 07:34N 50°42' W 001°58'1 0.8
2016-Jul-01 06:33N 50°42' W 001°59'0 0.0
2016-Jul-01 05:33N 50°42' W 001°59'0 0.0
2016-Jul-01 04:33N 50°42' W 001°59'0 0.0
2016-Jul-01 03:33N 50°42' W 001°59'0 0.0
2016-Jul-01 02:33N 50°42' W 001°59'0 0.0
2016-Jul-01 01:33N 50°42' W 001°59'0 0.0
2016-Jul-01 00:33N 50°42' W 001°59'0 0.0
2016-Jun-30 23:33N 50°42' W 001°59'0 0.0
2016-Jun-30 22:33N 50°42' W 001°59'0 0.0
2016-Jun-30 21:33N 50°42' W 001°59'0 0.1
2016-Jun-30 20:33N 50°42' W 001°59'1313.3
2016-Jun-30 19:33N 50°30' W 001°52'1 0.1
2016-Jun-30 08:32N 50°31' W 001°52'1312.9
2016-Jun-30 07:34N 50°42' W 001°59'0 0.0
2016-Jun-30 06:34N 50°42' W 001°59'1 1.0
2016-Jun-30 05:34N 50°42' W 001°58'1413.8
2016-Jun-30 04:32N 50°28' W 001°53'3 0.2
2016-Jun-29 08:32N 50°32' W 001°52'1212.0
2016-Jun-29 07:33N 50°42' W 001°59'0 0.0
2016-Jun-29 06:34N 50°42' W 001°59'1 1.3
2016-Jun-29 05:33N 50°42' W 001°58'1413.3
2016-Jun-29 04:31N 50°29' W 001°52'6 0.3
2016-Jun-28 08:33N 50°35' W 001°53'8 8.5
2016-Jun-28 07:33N 50°42' W 001°59'0 0.0
2016-Jun-28 06:33N 50°42' W 001°59'0 0.0
2016-Jun-28 04:33N 50°42' W 001°59'0 0.0
2016-Jun-28 03:33N 50°42' W 001°59'0 0.0
2016-Jun-28 02:33N 50°42' W 001°59'0 0.0
2016-Jun-28 01:33N 50°42' W 001°59'0 0.0
2016-Jun-28 00:33N 50°42' W 001°59'0 0.0
2016-Jun-27 23:33N 50°42' W 001°59'0 0.0
2016-Jun-27 22:33N 50°42' W 001°59'0 0.0
2016-Jun-27 21:33N 50°42' W 001°59'0 0.0
2016-Jun-27 20:33N 50°42' W 001°59'1312.5
2016-Jun-27 19:31N 50°31' W 001°51'1818.3
2016-Jun-27 18:34N 50°13' W 001°47'1918.6
2016-Jun-27 17:34N 49°55' W 001°41'5 0.7
2016-Jun-27 10:19N 50°00' W 001°42'3318.5
2016-Jun-27 08:33N 50°32' W 001°53'1111.0
2016-Jun-27 07:34N 50°42' W 001°59'0 0.0
2016-Jun-27 06:34N 50°42' W 001°59'0 0.0
2016-Jun-27 05:33N 50°42' W 001°59'0 0.0
2016-Jun-27 04:34N 50°42' W 001°59'0 0.0
2016-Jun-27 03:34N 50°42' W 001°59'0 0.0
2016-Jun-27 02:34N 50°42' W 001°59'0 0.0
2016-Jun-27 01:34N 50°42' W 001°59'0 0.0
2016-Jun-27 00:34N 50°42' W 001°59'0 0.0
2016-Jun-26 23:34N 50°42' W 001°59'0 0.0
2016-Jun-26 22:34N 50°42' W 001°59'0 0.0
2016-Jun-26 21:34N 50°42' W 001°59'0 0.0
2016-Jun-26 20:34N 50°42' W 001°59'1010.1
2016-Jun-26 19:33N 50°33' W 001°53'40 4.4
2016-Jun-26 10:29N 49°55' W 001°37'3718.6
2016-Jun-26 08:29N 50°30' W 001°52'1313.6
2016-Jun-26 07:33N 50°42' W 001°59'1 0.6
2016-Jun-26 06:33N 50°42' W 001°59'0 0.0
2016-Jun-26 05:33N 50°42' W 001°59'0 0.0
2016-Jun-26 04:33N 50°42' W 001°59'0 0.0
2016-Jun-26 03:33N 50°42' W 001°59'0 0.0
2016-Jun-26 02:33N 50°42' W 001°59'0 0.0
2016-Jun-26 01:33N 50°42' W 001°59'0 0.0
2016-Jun-26 00:33N 50°42' W 001°59'0 0.0
2016-Jun-25 23:33N 50°42' W 001°59'0 0.0
2016-Jun-25 22:33N 50°42' W 001°59'0 0.0
2016-Jun-25 21:33N 50°42' W 001°59'0 0.0
2016-Jun-25 20:33N 50°42' W 001°59'1010.5
2016-Jun-25 19:33N 50°33' W 001°52'38 4.2
2016-Jun-25 10:26N 49°56' W 001°38'3618.7
2016-Jun-25 08:29N 50°31' W 001°52'1213.1
2016-Jun-25 07:33N 50°42' W 001°59'1 0.6
2016-Jun-25 06:33N 50°42' W 001°59'0 0.0
2016-Jun-25 05:33N 50°42' W 001°59'0 0.0
2016-Jun-25 04:33N 50°42' W 001°59'0 0.0
2016-Jun-25 03:33N 50°42' W 001°59'0 0.0
2016-Jun-25 02:33N 50°42' W 001°59'0 0.0
2016-Jun-25 01:33N 50°42' W 001°59'0 0.0
2016-Jun-25 00:33N 50°42' W 001°59'0 0.0
2016-Jun-24 23:33N 50°42' W 001°59'0 0.0
2016-Jun-24 22:33N 50°42' W 001°59'0 0.0
2016-Jun-24 21:33N 50°42' W 001°59'0 0.0
2016-Jun-24 20:33N 50°42' W 001°59'1110.6
2016-Jun-24 19:33N 50°33' W 001°52'4 0.3
2016-Jun-24 08:33N 50°29' W 001°51'1413.7
2016-Jun-24 07:33N 50°42' W 001°58'1 0.2
2016-Jun-24 04:33N 50°42' W 001°59'0 0.0
2016-Jun-24 03:33N 50°42' W 001°59'0 0.0
2016-Jun-24 02:33N 50°42' W 001°59'0 0.0
2016-Jun-24 01:33N 50°42' W 001°59'0 0.0
2016-Jun-24 00:33N 50°42' W 001°59'0 0.0
2016-Jun-23 23:33N 50°42' W 001°59'0 0.0
2016-Jun-23 22:33N 50°42' W 001°59'0 0.0
2016-Jun-23 21:33N 50°42' W 001°59'0 0.0
2016-Jun-23 20:33N 50°42' W 001°59'1211.6
2016-Jun-23 19:33N 50°32' W 001°52'1 0.1
2016-Jun-23 08:33N 50°33' W 001°53'1010.3
2016-Jun-23 07:33N 50°42' W 001°59'3 1.4
2016-Jun-23 05:33N 50°40' W 001°56'11 0.5
2016-Jun-22 08:33N 50°30' W 001°51'1313.2
2016-Jun-22 07:33N 50°42' W 001°59'1 0.5
2016-Jun-22 06:33N 50°42' W 001°59'1 1.0
2016-Jun-22 05:33N 50°42' W 001°58'  
Track history (hours):
 
Tides and Currents Weather Stations Pressure Air Temp Water Temp Dewpoint Dewpoint Depression Visibility Wind Speed Wind Dir Waves Ship Positions

Barfleur

Operator: Brittany Ferries

Last reported at 2016-Jul-02 04:33 UTC. Time now 2016-Jul-02 05:50 UTC.
Position N 50°42' W 001°59'.

Length 158 m; draft 5 m.

Type: Passenger vessel. MMSI: 227289000.

Date/timePositionNaut miles runAvg speedWind from/ knotsBaromVisibWave heightAir tempDewpointWater temp
2016-Jul-02 04:33N 50°42' W 001°59'0 0.0
2016-Jul-02 03:33N 50°42' W 001°59'0 0.0
2016-Jul-02 02:33N 50°42' W 001°59'0 0.0
2016-Jul-02 01:33N 50°42' W 001°59'0 0.0
2016-Jul-02 00:33N 50°42' W 001°59'0 0.0
2016-Jul-01 23:33N 50°42' W 001°59'0 0.0
2016-Jul-01 22:33N 50°42' W 001°59'0 0.0
2016-Jul-01 21:33N 50°42' W 001°59'1 0.9
2016-Jul-01 20:33N 50°42' W 001°58'13 1.1
2016-Jul-01 08:27N 50°30' W 001°52'1314.7
2016-Jul-01 07:34N 50°42' W 001°58'1 0.8
2016-Jul-01 06:33N 50°42' W 001°59'0 0.0
2016-Jul-01 05:33N 50°42' W 001°59'0 0.0
2016-Jul-01 04:33N 50°42' W 001°59'0 0.0
2016-Jul-01 03:33N 50°42' W 001°59'0 0.0
2016-Jul-01 02:33N 50°42' W 001°59'0 0.0
2016-Jul-01 01:33N 50°42' W 001°59'0 0.0
2016-Jul-01 00:33N 50°42' W 001°59'0 0.0
2016-Jun-30 23:33N 50°42' W 001°59'0 0.0
2016-Jun-30 22:33N 50°42' W 001°59'0 0.0
2016-Jun-30 21:33N 50°42' W 001°59'0 0.1
2016-Jun-30 20:33N 50°42' W 001°59'1313.3
2016-Jun-30 19:33N 50°30' W 001°52'1 0.1
2016-Jun-30 08:32N 50°31' W 001°52'1312.9
2016-Jun-30 07:34N 50°42' W 001°59'0 0.0
2016-Jun-30 06:34N 50°42' W 001°59'1 1.0
2016-Jun-30 05:34N 50°42' W 001°58'1413.8
2016-Jun-30 04:32N 50°28' W 001°53'3 0.2
2016-Jun-29 08:32N 50°32' W 001°52'1212.0
2016-Jun-29 07:33N 50°42' W 001°59'0 0.0
2016-Jun-29 06:34N 50°42' W 001°59'1 1.3
2016-Jun-29 05:33N 50°42' W 001°58'1413.3
2016-Jun-29 04:31N 50°29' W 001°52'6 0.3
2016-Jun-28 08:33N 50°35' W 001°53'8 8.5
2016-Jun-28 07:33N 50°42' W 001°59'0 0.0
2016-Jun-28 06:33N 50°42' W 001°59'0 0.0
2016-Jun-28 04:33N 50°42' W 001°59'0 0.0
2016-Jun-28 03:33N 50°42' W 001°59'0 0.0
2016-Jun-28 02:33N 50°42' W 001°59'0 0.0
2016-Jun-28 01:33N 50°42' W 001°59'0 0.0
2016-Jun-28 00:33N 50°42' W 001°59'0 0.0
2016-Jun-27 23:33N 50°42' W 001°59'0 0.0
2016-Jun-27 22:33N 50°42' W 001°59'0 0.0
2016-Jun-27 21:33N 50°42' W 001°59'0 0.0
2016-Jun-27 20:33N 50°42' W 001°59'1312.5
2016-Jun-27 19:31N 50°31' W 001°51'1818.3
2016-Jun-27 18:34N 50°13' W 001°47'1918.6
2016-Jun-27 17:34N 49°55' W 001°41'5 0.7
2016-Jun-27 10:19N 50°00' W 001°42'3318.5
2016-Jun-27 08:33N 50°32' W 001°53'1111.0
2016-Jun-27 07:34N 50°42' W 001°59'0 0.0
2016-Jun-27 06:34N 50°42' W 001°59'0 0.0
2016-Jun-27 05:33N 50°42' W 001°59'0 0.0
2016-Jun-27 04:34N 50°42' W 001°59'0 0.0
2016-Jun-27 03:34N 50°42' W 001°59'0 0.0
2016-Jun-27 02:34N 50°42' W 001°59'0 0.0
2016-Jun-27 01:34N 50°42' W 001°59'0 0.0
2016-Jun-27 00:34N 50°42' W 001°59'0 0.0
2016-Jun-26 23:34N 50°42' W 001°59'0 0.0
2016-Jun-26 22:34N 50°42' W 001°59'0 0.0
2016-Jun-26 21:34N 50°42' W 001°59'0 0.0
2016-Jun-26 20:34N 50°42' W 001°59'1010.1
2016-Jun-26 19:33N 50°33' W 001°53'40 4.4
2016-Jun-26 10:29N 49°55' W 001°37'3718.6
2016-Jun-26 08:29N 50°30' W 001°52'1313.6
2016-Jun-26 07:33N 50°42' W 001°59'1 0.6
2016-Jun-26 06:33N 50°42' W 001°59'0 0.0
2016-Jun-26 05:33N 50°42' W 001°59'0 0.0
2016-Jun-26 04:33N 50°42' W 001°59'0 0.0
2016-Jun-26 03:33N 50°42' W 001°59'0 0.0
2016-Jun-26 02:33N 50°42' W 001°59'0 0.0
2016-Jun-26 01:33N 50°42' W 001°59'0 0.0
2016-Jun-26 00:33N 50°42' W 001°59'0 0.0
2016-Jun-25 23:33N 50°42' W 001°59'0 0.0
2016-Jun-25 22:33N 50°42' W 001°59'0 0.0
2016-Jun-25 21:33N 50°42' W 001°59'0 0.0
2016-Jun-25 20:33N 50°42' W 001°59'1010.5
2016-Jun-25 19:33N 50°33' W 001°52'38 4.2
2016-Jun-25 10:26N 49°56' W 001°38'3618.7
2016-Jun-25 08:29N 50°31' W 001°52'1213.1
2016-Jun-25 07:33N 50°42' W 001°59'1 0.6
2016-Jun-25 06:33N 50°42' W 001°59'0 0.0
2016-Jun-25 05:33N 50°42' W 001°59'0 0.0
2016-Jun-25 04:33N 50°42' W 001°59'0 0.0
2016-Jun-25 03:33N 50°42' W 001°59'0 0.0
2016-Jun-25 02:33N 50°42' W 001°59'0 0.0
2016-Jun-25 01:33N 50°42' W 001°59'0 0.0
2016-Jun-25 00:33N 50°42' W 001°59'0 0.0
2016-Jun-24 23:33N 50°42' W 001°59'0 0.0
2016-Jun-24 22:33N 50°42' W 001°59'0 0.0
2016-Jun-24 21:33N 50°42' W 001°59'0 0.0
2016-Jun-24 20:33N 50°42' W 001°59'1110.6
2016-Jun-24 19:33N 50°33' W 001°52'4 0.3
2016-Jun-24 08:33N 50°29' W 001°51'1413.7
2016-Jun-24 07:33N 50°42' W 001°58'1 0.2
2016-Jun-24 04:33N 50°42' W 001°59'0 0.0
2016-Jun-24 03:33N 50°42' W 001°59'0 0.0
2016-Jun-24 02:33N 50°42' W 001°59'0 0.0
2016-Jun-24 01:33N 50°42' W 001°59'0 0.0
2016-Jun-24 00:33N 50°42' W 001°59'0 0.0
2016-Jun-23 23:33N 50°42' W 001°59'0 0.0
2016-Jun-23 22:33N 50°42' W 001°59'0 0.0
2016-Jun-23 21:33N 50°42' W 001°59'0 0.0
2016-Jun-23 20:33N 50°42' W 001°59'1211.6
2016-Jun-23 19:33N 50°32' W 001°52'1 0.1
2016-Jun-23 08:33N 50°33' W 001°53'1010.3
2016-Jun-23 07:33N 50°42' W 001°59'3 1.4
2016-Jun-23 05:33N 50°40' W 001°56'11 0.5
2016-Jun-22 08:33N 50°30' W 001°51'1313.2
2016-Jun-22 07:33N 50°42' W 001°59'1 0.5
2016-Jun-22 06:33N 50°42' W 001°59'1 1.0
2016-Jun-22 05:33N 50°42' W 001°58'  

Dump ship's entire track history